createdAt,value
2022-11-22T00:04:33.944Z,6.88
2022-11-22T00:09:32.810Z,6.97
2022-11-22T00:14:33.203Z,7.06
2022-11-22T00:19:32.228Z,6.99
2022-11-22T00:24:31.055Z,7.01
2022-11-22T00:29:30.348Z,7.05
2022-11-22T00:34:30.919Z,7.21
2022-11-22T00:39:30.003Z,7.05
2022-11-22T00:44:29.063Z,7.23
2022-11-22T00:49:28.129Z,7.29
2022-11-22T00:54:28.682Z,7.14
2022-11-22T00:59:27.660Z,7.25
2022-11-22T01:04:26.589Z,6.98
2022-11-22T01:09:25.785Z,7.13
2022-11-22T01:14:26.197Z,7.09
2022-11-22T01:19:25.171Z,7.11
2022-11-22T01:24:24.380Z,7.17
2022-11-22T01:29:23.459Z,7.30
2022-11-22T01:34:23.970Z,7.22
2022-11-22T01:39:22.747Z,7.25
2022-11-22T01:44:22.972Z,7.45
2022-11-22T01:49:29.484Z,7.47
2022-11-22T01:54:33.665Z,7.48
2022-11-22T01:59:37.528Z,7.50
2022-11-22T02:04:38.765Z,7.25
2022-11-22T02:09:39.211Z,7.42
2022-11-22T02:14:39.646Z,7.27
2022-11-22T02:19:44.945Z,7.28
2022-11-22T02:24:50.750Z,7.47
2022-11-22T02:29:51.031Z,7.32
2022-11-22T02:34:51.680Z,7.24
2022-11-22T02:39:54.173Z,7.15
2022-11-22T02:44:54.351Z,7.41
2022-11-22T02:49:54.227Z,7.17
2022-11-22T02:54:55.040Z,7.25
2022-11-22T02:59:55.219Z,7.36
2022-11-22T03:04:54.035Z,7.29
2022-11-22T03:09:52.796Z,7.48
2022-11-22T03:14:51.550Z,7.24
2022-11-22T03:19:51.790Z,7.18
2022-11-22T03:24:50.615Z,7.30
2022-11-22T03:29:49.380Z,7.20
2022-11-22T03:34:48.290Z,7.08
2022-11-22T03:39:48.437Z,7.13
2022-11-22T03:44:47.251Z,6.92
2022-11-22T03:49:46.300Z,7.14
2022-11-22T03:54:45.105Z,7.03
2022-11-22T03:59:45.356Z,7.18
2022-11-22T04:04:44.460Z,7.05
2022-11-22T04:09:43.441Z,6.79
2022-11-22T04:14:59.990Z,6.81
2022-11-22T04:20:22.910Z,6.75
2022-11-22T04:25:21.746Z,6.84
2022-11-22T04:30:21.181Z,6.97
2022-11-22T04:35:21.374Z,6.96
2022-11-22T04:40:20.288Z,6.94
2022-11-22T04:45:19.088Z,7.01
2022-11-22T04:50:35.411Z,7.05
2022-11-22T04:55:35.943Z,7.06
2022-11-22T05:00:34.806Z,7.08
2022-11-22T05:05:36.759Z,7.11
2022-11-22T05:10:52.183Z,6.95
2022-11-22T05:15:51.476Z,6.98
2022-11-22T05:20:50.224Z,6.83
2022-11-22T05:25:50.395Z,6.96
2022-11-22T05:30:49.305Z,7.09
2022-11-22T05:35:48.263Z,7.12
2022-11-22T05:40:47.063Z,7.08
2022-11-22T05:45:47.497Z,7.03
2022-11-22T05:50:46.307Z,7.11
2022-11-22T05:55:48.257Z,7.13
2022-11-22T06:00:48.531Z,7.10
2022-11-22T06:05:52.891Z,6.98
2022-11-22T06:10:51.833Z,6.86
2022-11-22T06:15:52.082Z,6.78
2022-11-22T06:20:50.875Z,6.90
2022-11-22T06:25:56.931Z,6.86
2022-11-22T06:31:02.278Z,6.95
2022-11-22T06:36:03.795Z,6.98
2022-11-22T06:41:03.018Z,7.02
2022-11-22T06:46:04.356Z,6.95
2022-11-22T06:51:05.325Z,6.95
2022-11-22T06:56:05.962Z,6.68
2022-11-22T07:01:08.182Z,6.74
2022-11-22T07:06:08.720Z,7.04
2022-11-22T07:11:09.764Z,7.15
2022-11-22T07:16:12.000Z,6.83
2022-11-22T07:21:13.485Z,6.92
2022-11-22T07:26:13.177Z,6.83
2022-11-22T07:31:15.274Z,6.77
2022-11-22T07:36:15.672Z,6.99
2022-11-22T07:41:14.924Z,7.15
2022-11-22T07:46:24.067Z,7.17
2022-11-22T07:51:23.096Z,6.86
2022-11-22T07:56:21.968Z,7.08
2022-11-22T08:01:23.776Z,7.24
2022-11-22T08:06:22.716Z,7.49
2022-11-22T08:11:21.486Z,7.42
2022-11-22T08:16:21.572Z,7.51
2022-11-22T08:21:20.931Z,7.72
2022-11-22T08:26:21.230Z,8.02
2022-11-22T08:31:21.479Z,8.10
2022-11-22T08:36:20.228Z,8.17
2022-11-22T08:41:19.015Z,8.23
2022-11-22T08:46:18.034Z,8.43
2022-11-22T08:51:18.183Z,8.92
2022-11-22T08:56:17.826Z,9.57
2022-11-22T09:01:19.164Z,9.85
2022-11-22T09:11:39.716Z,10.91
2022-11-22T09:16:38.583Z,11.19
2022-11-22T09:21:38.771Z,12.19
2022-11-22T09:26:37.602Z,12.36
2022-11-22T09:31:36.348Z,12.85
2022-11-22T09:36:35.176Z,12.81
2022-11-22T09:42:24.278Z,13.04
2022-11-22T09:47:38.212Z,13.49
2022-11-22T09:52:41.898Z,14.02
2022-11-22T09:57:45.941Z,14.57
2022-11-22T10:03:00.858Z,15.20
2022-11-22T10:08:08.005Z,15.27
2022-11-22T10:13:13.364Z,15.57
2022-11-22T10:18:22.633Z,16.10
2022-11-22T10:23:23.614Z,16.15
2022-11-22T10:28:33.854Z,16.68
2022-11-22T10:33:44.341Z,16.70
2022-11-22T10:39:03.917Z,15.99
2022-11-22T10:44:15.949Z,16.58
2022-11-22T10:49:24.613Z,17.18
2022-11-22T10:54:32.416Z,17.98
2022-11-22T10:59:53.539Z,18.75
2022-11-22T11:04:57.130Z,18.77
2022-11-22T11:10:21.603Z,18.73
2022-11-22T11:15:22.520Z,19.25
2022-11-22T11:20:26.668Z,20.03
2022-11-22T11:25:30.712Z,20.81
2022-11-22T11:30:29.699Z,20.56
2022-11-22T11:35:32.364Z,21.13
2022-11-22T11:40:33.815Z,21.84
2022-11-22T11:45:33.225Z,22.65
2022-11-22T11:50:33.429Z,23.26
2022-11-22T11:55:32.940Z,23.17
2022-11-22T12:00:39.197Z,23.27
2022-11-22T12:05:39.450Z,23.38
2022-11-22T12:10:45.554Z,23.94
2022-11-22T12:15:53.078Z,24.27
2022-11-22T12:21:02.745Z,24.00
2022-11-22T12:26:02.158Z,23.88
2022-11-22T12:31:10.642Z,23.68
2022-11-22T12:36:18.960Z,23.77
2022-11-22T12:41:21.269Z,23.57
2022-11-22T12:46:26.445Z,23.42
2022-11-22T12:51:32.095Z,23.18
2022-11-22T12:56:38.141Z,22.81
2022-11-22T13:01:51.549Z,23.02
2022-11-22T13:06:59.142Z,23.04
2022-11-22T13:12:02.311Z,23.01
2022-11-22T13:17:06.893Z,22.90
2022-11-22T13:22:17.022Z,22.35
2022-11-22T13:27:21.819Z,22.28
2022-11-22T13:32:23.883Z,22.05
2022-11-22T13:37:24.046Z,22.28
2022-11-22T13:42:27.537Z,21.80
2022-11-22T13:47:43.630Z,21.64
2022-11-22T13:52:54.678Z,21.34
2022-11-22T13:57:53.364Z,20.96
2022-11-22T14:02:55.008Z,20.44
2022-11-22T14:07:57.103Z,19.78
2022-11-22T14:13:18.310Z,19.30
2022-11-22T14:18:40.865Z,18.07
2022-11-22T14:23:54.218Z,17.32
2022-11-22T14:29:17.515Z,16.93
2022-11-22T14:34:21.746Z,16.69
2022-11-22T14:40:00.866Z,16.40
2022-11-22T14:45:00.980Z,16.00
2022-11-22T14:50:02.094Z,15.66
2022-11-22T14:55:06.236Z,15.23
2022-11-22T15:00:15.438Z,14.86
2022-11-22T15:09:23.395Z,14.53
2022-11-22T15:11:04.652Z,14.08
2022-11-22T15:59:42.009Z,12.81
2022-11-22T16:04:47.499Z,12.83
2022-11-22T16:09:52.340Z,12.74
2022-11-22T16:14:53.077Z,12.78
2022-11-22T16:19:52.232Z,12.71
2022-11-22T16:24:51.325Z,12.64
2022-11-22T16:29:53.825Z,12.51
2022-11-22T16:35:08.360Z,12.46
2022-11-22T16:40:14.202Z,12.17
2022-11-22T16:45:20.179Z,12.12
2022-11-22T16:50:19.334Z,12.08
2022-11-22T16:55:19.282Z,12.00
2022-11-22T17:00:19.983Z,11.78
2022-11-22T17:05:18.904Z,11.77
2022-11-22T17:10:17.743Z,11.75
2022-11-22T17:15:21.285Z,11.72
2022-11-22T17:20:20.120Z,11.74
2022-11-22T17:25:19.123Z,11.67
2022-11-22T17:30:19.659Z,11.60
2022-11-22T17:35:18.668Z,11.58
2022-11-22T17:40:17.603Z,11.43
2022-11-22T17:45:16.557Z,11.37
2022-11-22T17:50:18.233Z,11.44
2022-11-22T17:55:17.311Z,11.56
2022-11-22T18:00:17.246Z,11.69
2022-11-22T18:05:17.725Z,11.82
2022-11-22T18:10:16.763Z,11.83
2022-11-22T18:15:15.524Z,11.75
2022-11-22T18:20:14.440Z,11.73
2022-11-22T18:25:14.662Z,11.66
2022-11-22T18:30:15.860Z,11.32
2022-11-22T18:35:15.101Z,11.19
2022-11-22T18:40:16.109Z,11.18
2022-11-22T18:45:14.966Z,11.16
2022-11-22T18:55:19.992Z,11.11
2022-11-22T19:00:20.343Z,11.18
2022-11-22T19:05:24.256Z,11.32
2022-11-22T19:10:24.678Z,11.22
2022-11-22T19:15:23.384Z,11.19
2022-11-22T19:20:47.785Z,10.89
2022-11-22T19:25:43.695Z,10.54
2022-11-22T19:30:44.257Z,10.36
2022-11-22T19:35:43.323Z,10.47
2022-11-22T19:40:43.507Z,10.46
2022-11-22T19:45:42.307Z,10.54
2022-11-22T19:50:55.314Z,10.34
2022-11-22T19:55:55.954Z,10.66
2022-11-22T20:00:55.974Z,10.89
2022-11-22T20:06:00.167Z,10.96
2022-11-22T20:11:05.153Z,10.89
2022-11-22T20:16:08.688Z,10.93
2022-11-22T20:21:10.074Z,11.14
2022-11-22T20:26:12.238Z,11.22
2022-11-22T20:31:16.202Z,11.13
2022-11-22T20:36:19.360Z,11.18
2022-11-22T20:41:21.297Z,11.25
2022-11-22T20:46:23.137Z,11.35
2022-11-22T20:51:24.036Z,11.38
2022-11-22T20:56:27.671Z,11.36
2022-11-22T21:01:29.677Z,11.31
2022-11-22T21:06:35.812Z,11.12
2022-11-22T21:11:39.674Z,11.19
2022-11-22T21:16:38.653Z,11.30
2022-11-22T21:21:39.813Z,11.42
2022-11-22T21:26:42.315Z,11.47
2022-11-22T21:31:41.431Z,11.48
2022-11-22T21:36:40.299Z,11.49
2022-11-22T21:41:41.422Z,11.45
2022-11-22T21:46:43.980Z,11.35
2022-11-22T21:51:42.979Z,11.36
2022-11-22T21:56:43.786Z,11.34
2022-11-22T22:02:41.710Z,11.33
2022-11-22T22:07:52.660Z,11.28
2022-11-22T22:13:26.352Z,11.25
2022-11-22T22:18:25.437Z,11.18
2022-11-22T22:23:24.461Z,11.13
2022-11-22T22:28:24.303Z,11.10
2022-11-22T22:33:24.585Z,10.89
2022-11-22T22:38:23.850Z,10.89
2022-11-22T22:43:23.775Z,10.83
2022-11-22T22:48:22.869Z,10.88
2022-11-22T22:53:23.350Z,10.83
2022-11-22T22:58:22.436Z,10.70
2022-11-22T23:03:21.768Z,10.69
2022-11-22T23:08:20.599Z,10.75
2022-11-22T23:13:20.994Z,10.84
2022-11-22T23:18:20.021Z,10.78
2022-11-22T23:23:19.068Z,10.92
2022-11-22T23:28:18.600Z,10.89
2022-11-22T23:33:19.210Z,10.97
2022-11-22T23:38:18.174Z,11.03
2022-11-22T23:43:17.229Z,11.00
2022-11-22T23:48:16.643Z,10.97
2022-11-22T23:53:17.111Z,10.88
2022-11-22T23:58:16.217Z,10.93
